Time;durP1;ratioP1;P1;durP2;ratioP2;P2;SDS_P1;SDS_P2;PMS_P1;PMS_P2;Temp;Humidity;BMP_temperature;BMP_pressure;BME280_temperature;BME280_humidity;BME280_pressure;Samples;Min_cycle;Max_cycle;Signal;HPM_P1;HPM_P2
2022/01/12 00:00:29;;;;;;;9.25;5.12;;;-6.70;99.90;;;;;;4392258;32;20081;-70
2022/01/12 00:02:56;;;;;;;10.73;5.65;;;-6.70;99.90;;;;;;4392715;32;20093;-69
2022/01/12 00:05:22;;;;;;;9.50;5.35;;;-6.60;99.90;;;;;;4379785;32;20121;-69
2022/01/12 00:07:51;;;;;;;9.85;5.25;;;-6.70;99.90;;;;;;4379349;32;20090;-70
2022/01/12 00:10:18;;;;;;;10.07;5.50;;;-6.70;99.90;;;;;;4380383;32;20080;-69
2022/01/12 00:12:48;;;;;;;8.52;4.78;;;-6.70;99.90;;;;;;4379875;32;20638;-68
2022/01/12 00:15:15;;;;;;;8.88;4.82;;;-6.60;99.90;;;;;;4392605;32;20062;-69
2022/01/12 00:17:42;;;;;;;8.02;4.50;;;-6.60;99.90;;;;;;4392141;32;20097;-70
2022/01/12 00:20:09;;;;;;;9.70;5.10;;;-6.60;99.90;;;;;;4379494;32;20085;-70
2022/01/12 00:22:38;;;;;;;9.25;4.95;;;-6.80;99.90;;;;;;4379634;32;20070;-70
2022/01/12 00:25:31;;;;;;;9.40;5.12;;;-6.80;99.90;;;;;;4379528;32;20574;-68
2022/01/12 00:33:23;;;;;;;8.23;4.45;;;-6.60;99.90;;;;;;4395613;32;20155;-69
2022/01/12 00:35:53;;;;;;;8.65;4.53;;;-6.60;99.90;;;;;;4385458;32;20524;-69
2022/01/12 00:38:23;;;;;;;6.75;3.83;;;-6.70;99.90;;;;;;4394622;32;20070;-69
2022/01/12 00:40:54;;;;;;;7.93;4.50;;;-6.70;99.90;;;;;;4392068;32;20177;-70
2022/01/12 00:43:26;;;;;;;6.68;4.07;;;-6.70;99.90;;;;;;4391616;32;20533;-69
2022/01/12 00:45:52;;;;;;;10.68;4.65;;;-6.60;99.90;;;;;;4379392;32;20130;-70
2022/01/12 00:48:19;;;;;;;9.48;4.40;;;-6.60;99.90;;;;;;4379511;32;20066;-70
2022/01/12 00:50:46;;;;;;;7.85;4.50;;;-6.70;99.90;;;;;;4379673;32;20175;-70
2022/01/12 00:53:14;;;;;;;8.70;4.62;;;-6.70;99.90;;;;;;4392022;32;20516;-69
2022/01/12 00:55:41;;;;;;;8.75;4.43;;;-6.70;99.90;;;;;;4379244;32;20096;-70
2022/01/12 00:58:07;;;;;;;8.75;4.53;;;-6.70;99.90;;;;;;4379201;32;20074;-69
2022/01/12 01:00:35;;;;;;;8.00;4.32;;;-6.70;99.90;;;;;;4379168;32;20081;-70
2022/01/12 01:03:02;;;;;;;9.60;4.80;;;-6.70;99.90;;;;;;4391561;32;20058;-70
2022/01/12 01:05:31;;;;;;;8.65;4.40;;;-6.70;99.90;;;;;;4378648;32;20066;-70
2022/01/12 01:07:58;;;;;;;8.35;4.37;;;-6.80;99.90;;;;;;4379033;32;20526;-68
2022/01/12 01:10:43;;;;;;;8.07;4.07;;;-6.70;99.90;;;;;;4379059;32;20215;-69
2022/01/12 01:13:10;;;;;;;6.47;4.03;;;-6.80;99.90;;;;;;4380736;32;20066;-69
2022/01/12 01:26:41;;;;;;;7.65;4.12;;;-6.80;99.90;;;;;;4391233;32;20084;-70
2022/01/12 01:29:08;;;;;;;7.70;4.12;;;-6.80;99.90;;;;;;4391048;32;20515;-68
2022/01/12 01:31:36;;;;;;;7.82;4.07;;;-6.80;99.90;;;;;;4392333;32;20074;-70
2022/01/12 01:34:08;;;;;;;6.68;4.03;;;-6.70;99.90;;;;;;4391147;32;20088;-70
2022/01/12 01:36:39;;;;;;;7.50;4.07;;;-6.80;99.90;;;;;;4391145;32;20153;-69
2022/01/12 01:39:08;;;;;;;6.93;3.50;;;-6.80;99.90;;;;;;4378883;32;20206;-70
2022/01/12 01:41:36;;;;;;;6.65;3.90;;;-6.80;99.90;;;;;;4378934;32;20094;-70
2022/01/12 01:44:32;;;;;;;8.30;4.07;;;-6.80;99.90;;;;;;4390698;32;20506;-70
2022/01/12 01:55:11;;;;;;;7.15;3.65;;;-6.80;99.90;;;;;;4391480;32;20145;-70
2022/01/12 01:57:38;;;;;;;6.45;3.83;;;-6.90;99.90;;;;;;4378532;32;20074;-68
2022/01/12 02:00:15;;;;;;;6.62;4.20;;;-6.80;99.90;;;;;;4378081;32;20088;-70
2022/01/12 02:02:44;;;;;;;7.87;3.92;;;-6.90;99.90;;;;;;4390871;32;20520;-70
2022/01/12 02:05:13;;;;;;;7.78;3.87;;;-6.80;99.90;;;;;;4390915;32;20073;-69
2022/01/12 02:07:40;;;;;;;9.88;4.32;;;-6.80;99.90;;;;;;4377979;32;20093;-71
2022/01/12 02:10:08;;;;;;;7.18;3.90;;;-6.80;99.90;;;;;;4378433;32;20078;-70
2022/01/12 02:12:34;;;;;;;6.12;3.83;;;-6.80;99.90;;;;;;4395803;32;20146;-69
2022/01/12 02:15:01;;;;;;;6.60;3.58;;;-6.80;99.90;;;;;;4379389;32;20082;-70
2022/01/12 02:17:35;;;;;;;7.65;4.12;;;-6.80;99.90;;;;;;4391481;32;20166;-70
2022/01/12 02:35:54;;;;;;;9.15;4.22;;;-6.90;99.90;;;;;;4364689;32;20092;-70
2022/01/12 02:41:07;;;;;;;7.37;5.03;;;-6.80;99.90;;;;;;4377254;32;20077;-71
2022/01/12 02:51:35;;;;;;;7.95;4.30;;;-6.80;99.90;;;;;;4377621;32;20492;-69
2022/01/12 02:54:04;;;;;;;9.18;4.87;;;-6.80;99.90;;;;;;4362974;32;20074;-70
2022/01/12 02:56:33;;;;;;;10.50;5.22;;;-6.80;99.90;;;;;;4374776;32;20089;-69
2022/01/12 02:59:00;;;;;;;8.25;4.60;;;-6.80;99.90;;;;;;4375061;32;20074;-70
2022/01/12 03:04:03;;;;;;;10.35;4.75;;;-6.90;99.90;;;;;;4362559;32;20517;-69
2022/01/12 03:06:35;;;;;;;10.70;5.30;;;-6.90;99.90;;;;;;4374785;32;20082;-68
2022/01/12 03:09:03;;;;;;;10.13;5.85;;;-6.80;99.90;;;;;;4375329;32;20163;-69
2022/01/12 03:11:31;;;;;;;12.98;5.93;;;-6.80;99.90;;;;;;4375231;32;20495;-69
2022/01/12 03:13:59;;;;;;;11.32;5.90;;;-6.80;99.90;;;;;;4375139;32;20094;-69
2022/01/12 03:16:26;;;;;;;10.40;4.97;;;-6.90;99.90;;;;;;4374894;32;20537;-70
2022/01/12 03:19:01;;;;;;;9.43;5.05;;;-6.80;99.90;;;;;;4374538;32;20457;-70
2022/01/12 03:21:33;;;;;;;9.57;4.82;;;-6.80;99.90;;;;;;4375462;32;20070;-69
2022/01/12 03:24:01;;;;;;;9.70;4.70;;;-6.80;99.90;;;;;;4374103;32;20089;-70
2022/01/12 03:26:33;;;;;;;9.65;4.10;;;-6.90;99.90;;;;;;4375199;32;20077;-69
2022/01/12 03:29:00;;;;;;;8.73;4.47;;;-6.80;99.90;;;;;;4375194;32;20100;-70
2022/01/12 03:31:30;;;;;;;9.10;4.68;;;-6.70;99.90;;;;;;4374268;32;20516;-69
2022/01/12 03:39:11;;;;;;;8.27;4.18;;;-6.80;99.90;;;;;;4352625;32;20076;-68
2022/01/12 03:41:40;;;;;;;8.10;4.55;;;-6.70;99.90;;;;;;4364680;32;20546;-68
2022/01/12 03:44:09;;;;;;;7.65;4.43;;;-6.80;99.90;;;;;;4364662;32;20074;-70
2022/01/12 03:46:44;;;;;;;8.77;4.82;;;-6.70;99.90;;;;;;4351968;32;20071;-68
2022/01/12 03:49:11;;;;;;;6.93;4.25;;;-6.70;99.90;;;;;;4378234;32;20169;-70
2022/01/12 03:51:37;;;;;;;9.88;5.15;;;-6.80;99.90;;;;;;4364137;32;20524;-69
2022/01/12 03:54:04;;;;;;;7.25;4.68;;;-6.70;99.90;;;;;;4364302;32;20453;-70
2022/01/12 03:56:31;;;;;;;10.25;5.50;;;-6.80;99.90;;;;;;4365013;32;20082;-69
2022/01/12 03:58:57;;;;;;;8.75;4.55;;;-6.80;99.90;;;;;;4353284;32;20078;-70
2022/01/12 04:01:23;;;;;;;7.85;5.45;;;-6.80;99.90;;;;;;4351677;32;20074;-70
2022/01/12 04:04:05;;;;;;;10.25;5.62;;;-6.80;99.90;;;;;;4363794;32;20078;-69
2022/01/12 04:08:50;;;;;;;7.77;4.60;;;-6.70;99.90;;;;;;3857253;37;20081;-70
2022/01/12 04:11:17;;;;;;;7.32;4.53;;;-6.70;99.90;;;;;;4419831;32;20091;-70
2022/01/12 04:13:46;;;;;;;10.02;6.15;;;-6.70;99.90;;;;;;4405957;32;20080;-69
2022/01/12 04:16:13;;;;;;;10.95;6.75;;;-6.90;99.90;;;;;;4418164;32;20603;-68
2022/01/12 04:18:40;;;;;;;12.43;6.97;;;-6.90;99.90;;;;;;4419818;32;20085;-69
2022/01/12 04:21:09;;;;;;;10.65;6.62;;;-6.90;99.90;;;;;;4405787;32;20073;-69
2022/01/12 04:23:37;;;;;;;11.05;7.18;;;-6.80;99.90;;;;;;4417984;32;20062;-70
2022/01/12 04:26:11;;;;;;;10.25;6.30;;;-6.90;99.90;;;;;;4405921;32;20518;-68
2022/01/12 04:28:43;;;;;;;8.48;5.37;;;-6.90;99.90;;;;;;4405408;32;20089;-69
2022/01/12 04:31:11;;;;;;;10.32;5.78;;;-6.90;99.90;;;;;;4418504;32;20077;-68
2022/01/12 04:33:39;;;;;;;9.88;6.05;;;-6.70;99.90;;;;;;4393065;32;20059;-70
2022/01/12 04:36:07;;;;;;;10.43;6.05;;;-6.80;99.90;;;;;;4393413;32;20154;-69
2022/01/12 04:38:36;;;;;;;9.50;6.10;;;-6.70;99.90;;;;;;4404584;32;20174;-70
2022/01/12 04:41:08;;;;;;;13.07;6.82;;;-6.70;99.90;;;;;;4390110;32;20081;-70
2022/01/12 04:43:38;;;;;;;14.00;6.60;;;-6.70;99.90;;;;;;4389836;32;20073;-69
2022/01/12 04:48:48;;;;;;;10.68;5.78;;;-6.70;99.90;;;;;;4404065;32;20569;-69
2022/01/12 04:51:15;;;;;;;9.40;5.45;;;-6.60;99.90;;;;;;4391482;32;20080;-70
2022/01/12 04:53:41;;;;;;;9.10;4.80;;;-6.50;99.90;;;;;;4403617;32;20508;-69
2022/01/12 04:56:07;;;;;;;8.43;4.72;;;-6.60;99.90;;;;;;4402213;32;20526;-68
2022/01/12 04:58:34;;;;;;;8.63;4.78;;;-6.70;99.90;;;;;;4389708;32;20537;-70
2022/01/12 05:01:11;;;;;;;9.07;3.87;;;-6.60;99.90;;;;;;4377164;32;20093;-69
2022/01/12 05:06:42;;;;;;;9.27;4.75;;;-6.70;99.90;;;;;;4402485;32;20084;-70
2022/01/12 05:09:16;;;;;;;6.47;3.78;;;-6.50;99.90;;;;;;4402413;32;20170;-70
2022/01/12 05:14:36;;;;;;;4.55;2.90;;;-6.60;99.90;;;;;;4402460;32;20074;-70
2022/01/12 05:17:02;;;;;;;7.53;3.25;;;-6.60;99.90;;;;;;4402175;32;20440;-69
2022/01/12 05:19:29;;;;;;;7.37;4.15;;;-6.50;99.90;;;;;;4369899;32;20164;-70
2022/01/12 05:21:55;;;;;;;7.78;4.25;;;-6.40;99.90;;;;;;4392059;32;20085;-70
2022/01/12 05:24:22;;;;;;;5.97;3.55;;;-6.60;99.90;;;;;;4366991;32;20158;-70
2022/01/12 05:26:48;;;;;;;6.00;3.28;;;-6.40;99.90;;;;;;4391933;32;20073;-70
2022/01/12 05:29:14;;;;;;;6.32;3.47;;;-6.40;99.90;;;;;;4393304;32;20081;-70
2022/01/12 05:31:41;;;;;;;5.78;3.50;;;-6.50;99.90;;;;;;4392253;32;20074;-70
2022/01/12 05:34:07;;;;;;;5.62;3.35;;;-6.40;99.90;;;;;;4391886;32;20078;-70
2022/01/12 05:36:34;;;;;;;7.18;3.47;;;-6.40;99.90;;;;;;4379251;32;20089;-70
2022/01/12 05:39:01;;;;;;;5.80;3.22;;;-6.20;99.90;;;;;;4392931;32;20061;-69
2022/01/12 05:41:28;;;;;;;4.55;2.60;;;-6.10;99.90;;;;;;4393665;32;20093;-70
2022/01/12 05:43:57;;;;;;;5.05;3.28;;;-6.10;99.90;;;;;;4379310;32;20147;-70
2022/01/12 05:46:26;;;;;;;5.85;2.80;;;-6.00;99.90;;;;;;4378482;32;20086;-69
2022/01/12 05:51:38;;;;;;;4.28;2.83;;;-5.90;99.90;;;;;;4388514;32;20186;-70
2022/01/12 05:54:05;;;;;;;4.55;2.62;;;-5.90;99.90;;;;;;4385724;32;20090;-68
2022/01/12 05:56:31;;;;;;;5.50;3.28;;;-5.90;99.90;;;;;;4370870;32;20069;-68
2022/01/12 05:58:58;;;;;;;5.50;3.60;;;-5.80;99.90;;;;;;4365687;32;20090;-68
2022/01/12 06:01:25;;;;;;;5.60;2.80;;;-5.80;99.90;;;;;;4361872;32;20509;-69
2022/01/12 06:03:51;;;;;;;5.43;2.90;;;-5.80;99.90;;;;;;4374966;32;21410;-70
2022/01/12 06:06:18;;;;;;;6.30;3.60;;;-5.80;99.90;;;;;;4388679;32;20065;-69
2022/01/12 06:08:46;;;;;;;4.72;2.62;;;-5.60;99.90;;;;;;4382517;32;20066;-69
2022/01/12 06:11:12;;;;;;;5.97;3.15;;;-5.70;99.90;;;;;;4380414;32;20527;-67
2022/01/12 06:13:38;;;;;;;5.22;2.55;;;-5.60;99.90;;;;;;4381827;32;20069;-68
2022/01/12 06:16:05;;;;;;;4.30;2.83;;;-5.40;99.90;;;;;;4391640;32;20545;-68
2022/01/12 06:18:32;;;;;;;5.57;2.87;;;-5.40;99.90;;;;;;4369973;32;20085;-68
2022/01/12 06:20:58;;;;;;;4.65;2.37;;;-5.50;99.90;;;;;;4388336;32;20166;-66
2022/01/12 06:23:24;;;;;;;5.35;2.60;;;-5.30;99.90;;;;;;4391418;32;20074;-66
2022/01/12 06:25:50;;;;;;;4.22;2.87;;;-5.20;99.90;;;;;;4385237;32;20105;-67
2022/01/12 06:28:24;;;;;;;5.50;3.55;;;-5.20;99.90;;;;;;4391496;32;20113;-65
2022/01/12 06:31:10;;;;;;;4.90;2.80;;;-5.00;99.90;;;;;;4381563;32;20086;-65
2022/01/12 06:33:48;;;;;;;5.67;2.90;;;-5.00;99.90;;;;;;4388470;32;20064;-64
2022/01/12 06:36:21;;;;;;;5.28;2.90;;;-5.30;99.90;;;;;;4374517;32;20078;-66
2022/01/12 06:38:49;;;;;;;3.78;2.50;;;-5.40;99.90;;;;;;4377970;32;20089;-66
2022/01/12 06:41:16;;;;;;;4.47;2.72;;;-5.40;99.90;;;;;;4383509;32;20455;-65
2022/01/12 06:43:43;;;;;;;4.87;2.87;;;-5.60;99.90;;;;;;4379663;32;20080;-65
2022/01/12 06:46:09;;;;;;;4.87;2.47;;;-5.70;99.90;;;;;;4376829;32;20097;-67
2022/01/12 06:48:36;;;;;;;3.97;2.53;;;-5.60;99.90;;;;;;4377423;32;20093;-66
2022/01/12 06:51:03;;;;;;;3.80;2.60;;;-5.40;99.90;;;;;;4388644;32;20089;-66
2022/01/12 06:53:32;;;;;;;5.28;2.50;;;-5.40;99.90;;;;;;4374524;32;20516;-69
2022/01/12 06:55:59;;;;;;;5.75;2.55;;;-5.40;99.90;;;;;;4380269;32;20074;-66
2022/01/12 06:58:26;;;;;;;4.75;2.70;;;-5.30;99.90;;;;;;4358225;32;20138;-65
2022/01/12 07:00:52;;;;;;;5.05;2.40;;;-5.30;99.90;;;;;;4379019;32;20081;-69
2022/01/12 07:03:19;;;;;;;3.95;2.60;;;-5.10;99.90;;;;;;4396176;32;20217;-65
2022/01/12 07:05:46;;;;;;;4.68;2.28;;;-5.10;99.90;;;;;;4393148;32;20413;-66
2022/01/12 07:08:16;;;;;;;4.32;2.62;;;-5.10;99.90;;;;;;4390454;32;20098;-68
2022/01/12 07:10:43;;;;;;;3.67;2.30;;;-5.00;99.90;;;;;;4377360;32;20178;-67
2022/01/12 07:13:11;;;;;;;4.50;2.72;;;-4.90;99.90;;;;;;4376941;32;20163;-71
2022/01/12 07:15:40;;;;;;;4.37;1.92;;;-4.80;99.90;;;;;;4353666;32;20066;-69
2022/01/12 07:18:06;;;;;;;3.90;2.15;;;-5.00;99.90;;;;;;4367096;32;20074;-70
2022/01/12 07:20:33;;;;;;;5.53;3.30;;;-5.00;99.90;;;;;;4371780;32;20295;-67
2022/01/12 07:23:00;;;;;;;5.25;3.30;;;-4.90;99.90;;;;;;4380639;32;20066;-70
2022/01/12 07:25:27;;;;;;;5.68;3.35;;;-5.10;99.90;;;;;;4374816;32;20198;-70
2022/01/12 07:27:54;;;;;;;6.65;3.58;;;-5.30;99.90;;;;;;4388513;32;20113;-70
2022/01/12 07:30:24;;;;;;;4.93;3.58;;;-5.10;99.90;;;;;;4380526;32;20083;-69
2022/01/12 07:32:51;;;;;;;6.70;3.97;;;-5.20;99.90;;;;;;4373842;32;20445;-69
2022/01/12 07:35:19;;;;;;;6.07;3.87;;;-5.30;99.90;;;;;;4380493;32;20085;-66
2022/01/12 07:37:46;;;;;;;6.50;4.20;;;-5.00;99.90;;;;;;4376714;32;20071;-68
2022/01/12 07:40:13;;;;;;;7.93;3.90;;;-5.20;99.90;;;;;;4379854;32;20524;-70
2022/01/12 07:42:40;;;;;;;5.40;3.47;;;-5.00;99.90;;;;;;4375185;32;20188;-69
2022/01/12 07:45:07;;;;;;;5.82;3.47;;;-5.00;99.90;;;;;;4376058;32;20077;-69
2022/01/12 07:47:34;;;;;;;8.65;3.95;;;-5.00;99.90;;;;;;4375742;32;20237;-70
2022/01/12 07:50:01;;;;;;;6.15;3.25;;;-5.10;99.90;;;;;;4382863;32;20529;-67
2022/01/12 07:52:30;;;;;;;4.43;3.28;;;-5.00;99.90;;;;;;4387739;32;20077;-67
2022/01/12 07:54:57;;;;;;;4.85;3.25;;;-4.80;99.90;;;;;;4377977;32;20105;-68
2022/01/12 07:57:24;;;;;;;6.93;3.05;;;-4.80;99.90;;;;;;4376039;32;20101;-69
2022/01/12 07:59:50;;;;;;;6.30;2.80;;;-4.60;99.90;;;;;;4361040;32;20089;-69
2022/01/12 08:02:17;;;;;;;5.03;2.97;;;-5.10;99.90;;;;;;4383030;32;20128;-66
2022/01/12 08:04:43;;;;;;;5.05;3.20;;;-4.90;99.90;;;;;;4389666;32;20073;-69
2022/01/12 08:07:11;;;;;;;4.65;3.25;;;-5.20;99.90;;;;;;4387010;32;20070;-70
2022/01/12 08:09:42;;;;;;;5.43;3.15;;;-5.20;99.90;;;;;;4372066;32;20074;-69
2022/01/12 08:12:09;;;;;;;2.03;1.20;;;-5.10;99.90;;;;;;4389683;32;20073;-67
2022/01/12 08:14:36;;;;;;;2.20;1.05;;;-5.10;99.90;;;;;;4385976;32;20089;-70
2022/01/12 08:17:03;;;;;;;6.93;3.35;;;-4.90;99.90;;;;;;4370615;32;20124;-68
2022/01/12 08:19:34;;;;;;;9.77;4.07;;;-4.60;99.90;;;;;;4375365;32;20086;-68
2022/01/12 08:22:01;;;;;;;4.43;3.12;;;-4.90;99.90;;;;;;4372340;32;20100;-73
2022/01/12 08:24:27;;;;;;;2.97;1.65;;;-4.60;99.90;;;;;;4360984;32;20173;-67
2022/01/12 08:26:54;;;;;;;3.12;1.80;;;-4.90;99.90;;;;;;4381278;32;20082;-69
2022/01/12 08:29:20;;;;;;;1.33;1.08;;;-4.90;99.90;;;;;;4376333;32;20505;-70
2022/01/12 08:31:47;;;;;;;5.47;3.97;;;-4.80;99.90;;;;;;4361295;32;20082;-71
2022/01/12 08:34:14;;;;;;;5.68;4.10;;;-5.20;99.90;;;;;;4359310;32;20516;-70
2022/01/12 08:36:42;;;;;;;5.55;3.80;;;-5.30;99.90;;;;;;4364102;32;20178;-68
2022/01/12 08:39:09;;;;;;;6.62;4.32;;;-5.20;99.90;;;;;;4388153;32;20124;-69
2022/01/12 08:41:39;;;;;;;8.10;4.20;;;-5.20;99.90;;;;;;4379374;32;20525;-70
2022/01/12 08:44:07;;;;;;;7.07;3.42;;;-5.00;99.90;;;;;;4371471;32;20086;-69
2022/01/12 08:46:36;;;;;;;8.27;3.60;;;-4.70;99.90;;;;;;4363698;32;20086;-70
2022/01/12 08:49:03;;;;;;;7.65;4.30;;;-4.60;99.90;;;;;;4363937;32;20525;-69
2022/01/12 08:51:29;;;;;;;6.60;4.00;;;-5.00;99.90;;;;;;4376726;32;20085;-69
2022/01/12 08:53:56;;;;;;;7.37;3.80;;;-5.00;99.90;;;;;;4375292;32;20074;-68
2022/01/12 08:56:23;;;;;;;8.65;4.35;;;-4.90;99.90;;;;;;4361326;32;20074;-67
2022/01/12 08:58:50;;;;;;;7.37;4.00;;;-5.00;99.90;;;;;;4373428;32;20077;-67
2022/01/12 09:01:17;;;;;;;6.62;3.90;;;-5.10;99.90;;;;;;4376767;32;20179;-69
2022/01/12 09:03:44;;;;;;;8.77;3.90;;;-5.10;99.90;;;;;;4372055;32;20085;-68
2022/01/12 09:06:11;;;;;;;6.85;3.62;;;-5.10;99.90;;;;;;4371808;32;20113;-70
2022/01/12 09:08:38;;;;;;;8.40;4.22;;;-5.00;99.90;;;;;;4379845;32;20078;-68
2022/01/12 09:11:05;;;;;;;10.32;4.70;;;-5.00;99.90;;;;;;4394821;32;20075;-69
2022/01/12 09:13:32;;;;;;;7.40;4.75;;;-5.10;99.90;;;;;;4384561;32;20155;-69
2022/01/12 09:16:00;;;;;;;6.72;3.83;;;-5.00;99.90;;;;;;4372962;32;20101;-74
2022/01/12 09:18:26;;;;;;;7.07;4.47;;;-5.00;99.90;;;;;;4387928;32;20165;-68
2022/01/12 09:20:53;;;;;;;6.75;4.15;;;-5.20;99.90;;;;;;4367696;32;20154;-69
2022/01/12 09:23:20;;;;;;;5.40;3.62;;;-5.00;99.90;;;;;;4375680;32;20074;-70
2022/01/12 09:25:47;;;;;;;6.15;3.90;;;-5.00;99.90;;;;;;4384777;32;20086;-68
2022/01/12 09:28:13;;;;;;;4.97;3.35;;;-5.10;99.90;;;;;;4374908;32;20560;-67
2022/01/12 09:30:40;;;;;;;6.25;4.15;;;-4.90;99.90;;;;;;4391734;32;20082;-66
2022/01/12 09:33:06;;;;;;;7.62;3.92;;;-5.10;99.90;;;;;;4395673;32;20066;-68
2022/01/12 09:35:33;;;;;;;5.97;3.80;;;-5.10;99.90;;;;;;4391607;32;20065;-66
2022/01/12 09:37:59;;;;;;;7.95;4.20;;;-5.10;99.90;;;;;;4377367;32;20078;-65
2022/01/12 09:40:26;;;;;;;7.57;4.07;;;-5.00;99.90;;;;;;4378787;32;20175;-67
2022/01/12 09:42:53;;;;;;;7.65;3.65;;;-5.10;99.90;;;;;;4378986;32;20528;-66
2022/01/12 09:45:20;;;;;;;6.85;3.95;;;-5.20;99.90;;;;;;4366846;32;20082;-66
2022/01/12 09:47:49;;;;;;;6.90;3.60;;;-5.10;99.90;;;;;;4380712;32;20163;-64
2022/01/12 09:50:22;;;;;;;6.72;3.90;;;-4.90;99.90;;;;;;4379303;32;20075;-64
2022/01/12 09:52:49;;;;;;;7.20;4.30;;;-4.80;99.90;;;;;;4391024;32;20065;-65
2022/01/12 09:55:17;;;;;;;7.53;4.00;;;-4.90;99.90;;;;;;4387033;32;20072;-71
2022/01/12 09:57:44;;;;;;;6.15;3.95;;;-5.00;99.90;;;;;;4371223;32;20076;-69
2022/01/12 10:00:14;;;;;;;6.50;3.87;;;-5.10;99.90;;;;;;4376156;32;20163;-68
2022/01/12 10:02:42;;;;;;;6.40;3.70;;;-5.10;99.90;;;;;;4376062;32;20500;-68
2022/01/12 10:05:10;;;;;;;6.60;3.20;;;-5.10;99.90;;;;;;4382388;32;20089;-67
2022/01/12 10:07:37;;;;;;;7.50;3.80;;;-4.90;99.90;;;;;;4384273;32;20519;-66
2022/01/12 10:10:14;;;;;;;6.93;3.62;;;-4.90;99.90;;;;;;4381964;32;20117;-66
2022/01/12 10:12:52;;;;;;;6.35;3.58;;;-4.60;99.90;;;;;;4367254;32;20078;-66
2022/01/12 10:15:20;;;;;;;6.87;3.72;;;-4.80;99.90;;;;;;4385776;32;20097;-66
2022/01/12 10:17:47;;;;;;;6.03;4.05;;;-4.90;99.90;;;;;;4380531;32;20526;-64
2022/01/12 10:20:21;;;;;;;6.05;3.30;;;-4.90;99.90;;;;;;4385635;32;20090;-65
2022/01/12 10:23:08;;;;;;;6.53;3.67;;;-4.80;99.90;;;;;;3850103;37;20081;-64
2022/01/12 10:25:35;;;;;;;5.68;3.17;;;-4.80;99.90;;;;;;4405481;32;20149;-66
2022/01/12 10:28:15;;;;;;;5.62;3.70;;;-5.00;99.90;;;;;;4383067;32;20121;-64
2022/01/12 10:30:56;;;;;;;6.00;3.60;;;-4.90;99.90;;;;;;4402957;32;20496;-64
2022/01/12 10:33:29;;;;;;;6.45;3.85;;;-4.70;99.90;;;;;;4402226;32;20074;-67
2022/01/12 10:35:59;;;;;;;5.53;3.28;;;-4.90;99.90;;;;;;4372991;32;20085;-65
2022/01/12 10:38:26;;;;;;;6.00;3.85;;;-5.00;99.90;;;;;;4395842;32;20575;-64
2022/01/12 10:40:59;;;;;;;5.05;2.97;;;-5.10;99.90;;;;;;4376853;32;20077;-65
2022/01/12 10:43:34;;;;;;;5.10;3.28;;;-5.00;99.90;;;;;;4382264;32;20078;-64
2022/01/12 10:46:08;;;;;;;6.95;3.75;;;-5.10;99.90;;;;;;4386584;32;20882;-68
2022/01/12 10:48:40;;;;;;;6.65;3.85;;;-5.00;99.90;;;;;;4359359;32;20070;-69
2022/01/12 10:51:07;;;;;;;5.35;3.80;;;-4.80;99.90;;;;;;4380365;32;20066;-70
2022/01/12 10:53:36;;;;;;;6.97;4.05;;;-4.90;99.90;;;;;;4367964;32;20500;-68
2022/01/12 10:56:15;;;;;;;4.90;3.47;;;-5.00;99.90;;;;;;4381352;32;20078;-67
2022/01/12 10:58:45;;;;;;;7.70;4.05;;;-4.90;99.90;;;;;;4376307;32;20097;-69
2022/01/12 11:01:16;;;;;;;7.15;3.50;;;-4.80;99.90;;;;;;4360244;32;20097;-70
2022/01/12 11:03:44;;;;;;;6.47;3.92;;;-4.70;99.90;;;;;;4372899;32;20135;-69
2022/01/12 11:06:11;;;;;;;6.93;3.90;;;-4.80;99.90;;;;;;4373399;32;20082;-67
2022/01/12 11:08:39;;;;;;;8.15;3.87;;;-4.80;99.90;;;;;;4359432;32;20526;-70
2022/01/12 11:11:06;;;;;;;7.45;4.37;;;-4.90;99.90;;;;;;4372156;32;20069;-69
2022/01/12 11:13:35;;;;;;;7.25;4.28;;;-4.90;99.90;;;;;;4374639;32;20079;-70
2022/01/12 11:16:04;;;;;;;10.32;5.80;;;-5.00;99.90;;;;;;4371665;32;20078;-70
2022/01/12 11:18:35;;;;;;;10.90;6.90;;;-5.10;99.90;;;;;;4371911;32;20497;-71
2022/01/12 11:21:41;;;;;;;10.93;7.47;;;-5.10;99.90;;;;;;4371791;32;20521;-70
2022/01/12 11:24:15;;;;;;;11.43;5.95;;;-5.30;99.90;;;;;;4355767;32;20100;-70
2022/01/12 11:26:53;;;;;;;10.88;6.30;;;-5.10;99.90;;;;;;4359333;32;20546;-70
2022/01/12 11:29:28;;;;;;;10.00;6.18;;;-5.00;99.90;;;;;;4359523;32;20077;-65
2022/01/12 11:32:11;;;;;;;12.43;6.22;;;-5.00;99.90;;;;;;4378722;32;20096;-69
2022/01/12 11:34:37;;;;;;;11.75;7.18;;;-5.00;99.90;;;;;;4391873;32;20074;-67
2022/01/12 11:37:17;;;;;;;13.73;6.32;;;-5.10;99.90;;;;;;4391866;32;20086;-67
2022/01/12 11:39:44;;;;;;;10.10;5.35;;;-5.00;99.90;;;;;;4381671;32;20156;-67
2022/01/12 11:42:10;;;;;;;8.82;5.62;;;-5.00;99.90;;;;;;4362428;32;20139;-66
2022/01/12 11:44:38;;;;;;;9.70;5.22;;;-4.70;99.90;;;;;;4373413;32;20152;-69
2022/01/12 11:47:12;;;;;;;7.95;5.37;;;-4.90;99.90;;;;;;4363032;32;20175;-69
2022/01/12 11:49:47;;;;;;;8.15;4.90;;;-4.90;99.90;;;;;;4373778;32;20167;-72
2022/01/12 11:52:26;;;;;;;10.43;6.65;;;-4.90;99.90;;;;;;4364330;32;20145;-73
2022/01/12 11:55:08;;;;;;;6.57;4.20;;;-4.80;99.90;;;;;;4370434;32;20195;-70
2022/01/12 11:57:38;;;;;;;7.87;4.60;;;-4.80;99.90;;;;;;4364866;32;20098;-70
2022/01/12 12:00:12;;;;;;;6.50;4.25;;;-4.80;99.90;;;;;;4367263;32;20473;-70
2022/01/12 12:02:41;;;;;;;8.88;4.50;;;-4.80;99.90;;;;;;4355897;32;20078;-69
2022/01/12 12:05:23;;;;;;;8.07;4.28;;;-4.80;99.90;;;;;;4363703;32;20182;-66
2022/01/12 12:08:02;;;;;;;6.22;4.05;;;-4.70;99.90;;;;;;4375397;32;20074;-65
2022/01/12 12:10:34;;;;;;;7.72;3.97;;;-4.60;99.90;;;;;;4354868;32;20081;-68
2022/01/12 12:13:02;;;;;;;5.80;3.65;;;-4.60;99.90;;;;;;4380513;32;20069;-65
2022/01/12 12:15:29;;;;;;;4.62;2.92;;;-4.60;99.90;;;;;;4381458;32;20616;-67
2022/01/12 12:18:00;;;;;;;6.12;3.62;;;-4.80;99.90;;;;;;4379473;32;20176;-66
2022/01/12 12:20:27;;;;;;;6.25;3.92;;;-4.70;99.90;;;;;;4374333;32;20078;-66
2022/01/12 12:22:54;;;;;;;5.93;4.07;;;-4.60;99.90;;;;;;4378587;32;20422;-66
2022/01/12 12:25:27;;;;;;;7.85;4.45;;;-4.50;99.90;;;;;;4363045;32;20089;-65
2022/01/12 12:28:00;;;;;;;10.18;5.47;;;-4.70;99.90;;;;;;4369441;32;20074;-66
2022/01/12 12:30:30;;;;;;;5.60;3.35;;;-4.70;99.90;;;;;;4375476;32;20170;-67
2022/01/12 12:33:11;;;;;;;7.15;3.83;;;-4.70;99.90;;;;;;4378977;32;20082;-67
2022/01/12 12:35:40;;;;;;;7.03;3.65;;;-4.80;99.90;;;;;;4384195;32;20488;-66
2022/01/12 12:38:19;;;;;;;6.25;3.83;;;-4.80;99.90;;;;;;4366192;32;20086;-63
2022/01/12 12:40:49;;;;;;;8.65;3.55;;;-4.80;99.90;;;;;;4376000;32;20051;-64
2022/01/12 12:43:27;;;;;;;6.10;3.47;;;-4.70;99.90;;;;;;4377535;32;20086;-66
2022/01/12 12:45:59;;;;;;;8.63;3.85;;;-4.80;99.90;;;;;;4356695;32;20070;-66
2022/01/12 12:48:35;;;;;;;5.97;2.72;;;-4.70;99.90;;;;;;4363039;32;20078;-66
2022/01/12 12:51:08;;;;;;;7.95;2.80;;;-4.80;99.90;;;;;;4375874;32;20073;-68
2022/01/12 12:53:40;;;;;;;6.70;2.87;;;-4.60;99.90;;;;;;4362073;32;20078;-66
2022/01/12 12:56:15;;;;;;;9.73;3.33;;;-4.80;99.90;;;;;;4370684;32;20081;-66
2022/01/12 12:58:51;;;;;;;5.80;3.75;;;-4.80;99.90;;;;;;4378466;32;20162;-65
2022/01/12 13:01:19;;;;;;;;;;;-4.70;99.90;;;;;;4376147;32;20468;-65
2022/01/12 13:03:58;;;;;;;8.73;4.15;;;-4.80;99.90;;;;;;4381992;32;20001;-65
2022/01/12 13:06:37;;;;;;;7.07;3.95;;;-4.90;99.90;;;;;;4375702;32;20085;-65
2022/01/12 13:09:08;;;;;;;5.90;4.05;;;-4.80;99.90;;;;;;4382844;32;20093;-64
2022/01/12 13:11:46;;;;;;;6.97;4.00;;;-4.80;99.90;;;;;;4378304;32;20062;-66
2022/01/12 13:14:16;;;;;;;6.80;3.90;;;-4.70;99.90;;;;;;4375403;32;20159;-65
2022/01/12 13:16:52;;;;;;;6.82;4.15;;;-4.70;99.90;;;;;;4367968;32;20085;-64
2022/01/12 13:22:36;;;;;;;7.30;4.35;;;-4.70;99.90;;;;;;4371155;32;20187;-65
2022/01/12 13:25:08;;;;;;;7.32;4.32;;;-4.80;99.90;;;;;;4367017;32;20066;-67
2022/01/12 13:27:36;;;;;;;8.10;4.07;;;-4.70;99.90;;;;;;4379296;32;20086;-66
2022/01/12 13:30:08;;;;;;;6.72;4.25;;;-4.80;99.90;;;;;;4372275;32;20518;-67
2022/01/12 13:32:37;;;;;;;5.03;2.72;;;-4.90;99.90;;;;;;4364287;32;20150;-65
2022/01/12 13:35:09;;;;;;;7.40;3.33;;;-4.80;99.90;;;;;;4383263;32;20062;-66
2022/01/12 13:37:36;;;;;;;6.35;3.47;;;-4.60;99.90;;;;;;4380254;32;20165;-68
2022/01/12 13:40:13;;;;;;;5.28;3.45;;;-4.80;99.90;;;;;;4374458;32;20101;-68
2022/01/12 13:42:54;;;;;;;;;;;-4.70;99.90;;;;;;4369454;32;20526;-70
2022/01/12 13:45:35;;;;;;;7.28;4.32;;;-4.90;99.90;;;;;;4356010;32;19973;-69
2022/01/12 13:48:11;;;;;;;6.93;4.30;;;-4.90;99.90;;;;;;4374789;32;20101;-67
2022/01/12 13:50:40;;;;;;;6.70;4.40;;;-4.70;99.90;;;;;;4365285;32;20506;-69
2022/01/12 13:53:08;;;;;;;7.28;4.45;;;-4.80;99.90;;;;;;4375734;32;20166;-66
2022/01/12 13:55:37;;;;;;;8.23;4.50;;;-4.70;99.90;;;;;;4385112;32;20093;-63
2022/01/12 13:58:09;;;;;;;9.45;5.22;;;-4.80;99.90;;;;;;4385616;32;20109;-66
2022/01/12 14:00:37;;;;;;;6.78;3.78;;;-4.80;99.90;;;;;;4380111;32;20090;-65
2022/01/12 14:03:19;;;;;;;7.28;3.40;;;-4.80;99.90;;;;;;4356579;32;20082;-67
2022/01/12 14:05:47;;;;;;;7.47;4.32;;;-4.90;99.90;;;;;;4375313;32;20093;-67
2022/01/12 14:08:15;;;;;;;7.70;4.00;;;-4.60;99.90;;;;;;4377089;32;20066;-69
2022/01/12 14:10:52;;;;;;;8.73;3.97;;;-4.60;99.90;;;;;;4372309;32;20145;-66
2022/01/12 14:13:30;;;;;;;7.85;4.57;;;-4.80;99.90;;;;;;4386837;32;20073;-67